createdAt,value
2018-06-28T00:02:09.811Z,15.00
2018-06-28T00:04:39.547Z,15.00
2018-06-28T00:07:08.323Z,15.00
2018-06-28T00:09:37.280Z,14.90
2018-06-28T00:12:06.176Z,14.90
2018-06-28T00:14:39.847Z,14.90
2018-06-28T00:17:20.451Z,14.90
2018-06-28T00:19:51.204Z,14.80
2018-06-28T00:22:29.755Z,14.90
2018-06-28T00:24:58.519Z,14.90
2018-06-28T00:27:34.131Z,14.80
2018-06-28T00:30:05.189Z,14.80
2018-06-28T00:32:37.311Z,14.90
2018-06-28T00:35:08.131Z,14.90
2018-06-28T00:37:38.919Z,14.90
2018-06-28T00:40:17.483Z,14.90
2018-06-28T00:42:46.351Z,15.00
2018-06-28T00:45:21.664Z,15.00
2018-06-28T00:47:56.519Z,15.10
2018-06-28T00:50:28.907Z,15.00
2018-06-28T00:53:15.027Z,15.00
2018-06-28T00:55:45.819Z,15.00
2018-06-28T00:58:15.637Z,14.90
2018-06-28T01:03:48.073Z,15.00
2018-06-28T01:06:18.911Z,14.90
2018-06-28T01:08:48.671Z,14.80
2018-06-28T01:11:20.667Z,14.70
2018-06-28T01:13:50.443Z,14.60
2018-06-28T01:16:24.059Z,14.50
2018-06-28T01:18:54.811Z,14.40
2018-06-28T01:21:30.267Z,14.30
2018-06-28T01:24:11.255Z,14.20
2018-06-28T01:26:52.950Z,14.10
2018-06-28T01:29:21.763Z,14.10
2018-06-28T01:31:50.575Z,14.10
2018-06-28T01:34:24.759Z,14.00
2018-06-28T01:36:53.789Z,14.00
2018-06-28T01:39:29.751Z,14.00
2018-06-28T01:42:15.471Z,14.00
2018-06-28T01:44:49.007Z,13.90
2018-06-28T01:49:51.767Z,13.90
2018-06-28T01:52:20.595Z,13.90
2018-06-28T01:54:49.367Z,13.90
2018-06-28T01:57:32.043Z,13.90
2018-06-28T02:00:02.847Z,13.80
2018-06-28T02:02:32.654Z,13.80
2018-06-28T02:05:05.627Z,13.80
2018-06-28T02:07:35.432Z,13.80
2018-06-28T02:10:14.687Z,13.80
2018-06-28T02:12:43.463Z,13.80
2018-06-28T02:15:12.263Z,13.80
2018-06-28T02:20:12.571Z,13.80
2018-06-28T02:22:46.187Z,13.80
2018-06-28T02:25:16.062Z,13.80
2018-06-28T02:27:51.595Z,13.90
2018-06-28T02:30:26.975Z,13.90
2018-06-28T02:33:02.172Z,13.90
2018-06-28T02:35:32.947Z,13.90
2018-06-28T02:38:05.381Z,13.90
2018-06-28T02:43:29.403Z,13.70
2018-06-28T02:46:00.245Z,13.70
2018-06-28T02:48:35.332Z,13.60
2018-06-28T02:51:05.115Z,13.60
2018-06-28T02:53:33.895Z,13.60
2018-06-28T02:56:12.859Z,13.60
2018-06-28T02:58:41.711Z,13.60
2018-06-28T03:01:10.487Z,13.60
2018-06-28T03:03:45.026Z,13.60
2018-06-28T03:06:15.859Z,13.60
2018-06-28T03:11:41.375Z,13.50
2018-06-28T03:14:11.200Z,13.40
2018-06-28T03:16:40.991Z,13.40
2018-06-28T03:19:11.839Z,13.30
2018-06-28T03:24:45.911Z,13.10
2018-06-28T03:27:15.667Z,13.10
2018-06-28T03:29:57.031Z,13.10
2018-06-28T03:32:27.793Z,13.00
2018-06-28T03:34:56.591Z,13.00
2018-06-28T03:37:25.363Z,13.00
2018-06-28T03:40:06.811Z,13.00
2018-06-28T03:42:41.799Z,13.00
2018-06-28T03:45:12.263Z,13.00
2018-06-28T03:47:41.011Z,12.90
2018-06-28T03:50:11.847Z,12.90
2018-06-28T03:52:41.239Z,12.90
2018-06-28T03:55:12.131Z,12.90
2018-06-28T03:57:48.057Z,12.90
2018-06-28T04:02:47.887Z,13.00
2018-06-28T04:07:50.855Z,13.10
2018-06-28T04:10:29.319Z,13.10
2018-06-28T04:13:16.534Z,13.20
2018-06-28T04:15:47.311Z,13.20
2018-06-28T04:18:28.147Z,13.20
2018-06-28T04:21:05.531Z,13.30
2018-06-28T04:23:36.379Z,13.40
2018-06-28T04:26:21.559Z,13.50
2018-06-28T04:28:56.063Z,13.60
2018-06-28T04:31:28.502Z,13.70
2018-06-28T04:34:06.917Z,13.80
2018-06-28T04:36:41.243Z,13.90
2018-06-28T04:39:15.226Z,13.80
2018-06-28T04:41:55.604Z,13.70
2018-06-28T04:44:28.098Z,13.80
2018-06-28T04:47:12.998Z,13.70
2018-06-28T04:49:55.192Z,13.70
2018-06-28T04:55:21.691Z,13.50
2018-06-28T04:57:51.466Z,13.50
2018-06-28T05:00:22.875Z,13.50
2018-06-28T05:03:05.503Z,13.50
2018-06-28T05:05:49.387Z,13.60
2018-06-28T05:08:20.994Z,13.70
2018-06-28T05:10:53.200Z,13.80
2018-06-28T05:13:24.107Z,13.90
2018-06-28T05:15:53.850Z,14.10
2018-06-28T05:18:26.046Z,14.10
2018-06-28T05:20:54.858Z,14.30
2018-06-28T05:23:31.451Z,14.40
2018-06-28T05:26:10.254Z,14.60
2018-06-28T05:28:55.611Z,15.00
2018-06-28T05:31:30.142Z,15.30
2018-06-28T05:33:59.930Z,15.40
2018-06-28T05:36:33.627Z,15.50
2018-06-28T05:39:14.310Z,15.60
2018-06-28T05:41:48.874Z,15.70
2018-06-28T05:47:12.131Z,15.80
2018-06-28T05:50:03.742Z,15.90
2018-06-28T05:52:32.509Z,15.90
2018-06-28T05:55:08.398Z,15.90
2018-06-28T05:57:49.430Z,15.80
2018-06-28T06:03:06.042Z,15.90
2018-06-28T06:05:47.167Z,16.00
2018-06-28T06:08:22.711Z,16.20
2018-06-28T06:10:52.511Z,16.40
2018-06-28T06:13:39.971Z,16.50
2018-06-28T06:16:10.747Z,16.70
2018-06-28T06:21:46.080Z,17.00
2018-06-28T06:26:53.235Z,17.20
2018-06-28T06:29:28.113Z,17.20
2018-06-28T06:32:13.291Z,17.30
2018-06-28T06:34:45.998Z,17.60
2018-06-28T06:37:14.783Z,17.70
2018-06-28T06:42:19.934Z,18.00
2018-06-28T06:44:48.722Z,18.30
2018-06-28T06:47:38.534Z,18.50
2018-06-28T06:50:10.462Z,18.60
2018-06-28T06:52:48.898Z,18.60
2018-06-28T06:58:23.246Z,18.60
2018-06-28T07:00:52.106Z,18.50
2018-06-28T07:03:21.902Z,18.60
2018-06-28T07:06:07.270Z,18.40
2018-06-28T07:08:45.540Z,18.40
2018-06-28T07:11:15.262Z,18.10
2018-06-28T07:16:39.238Z,18.40
2018-06-28T07:19:08.350Z,18.70
2018-06-28T07:21:39.942Z,18.90
2018-06-28T07:24:09.666Z,19.30
2018-06-28T07:26:42.134Z,19.80
2018-06-28T07:29:14.594Z,20.30
2018-06-28T07:31:43.330Z,20.20
2018-06-28T07:34:14.114Z,20.10
2018-06-28T07:36:43.614Z,20.50
2018-06-28T07:39:23.346Z,20.90
2018-06-28T07:41:54.062Z,21.20
2018-06-28T07:44:33.018Z,21.30
2018-06-28T07:47:01.775Z,21.70
2018-06-28T07:55:14.072Z,21.50
2018-06-28T07:57:55.515Z,21.80
2018-06-28T08:00:31.081Z,21.60
2018-06-28T08:03:05.299Z,21.70
2018-06-28T08:05:35.141Z,21.40
2018-06-28T08:08:14.790Z,20.90
2018-06-28T08:10:47.391Z,20.90
2018-06-28T08:16:13.522Z,20.80
2018-06-28T08:18:49.618Z,20.90
2018-06-28T08:21:29.125Z,20.30
2018-06-28T08:24:01.458Z,19.80
2018-06-28T08:29:27.158Z,19.90
2018-06-28T08:31:55.930Z,20.20
2018-06-28T08:34:30.402Z,20.50
2018-06-28T08:37:02.751Z,20.60
2018-06-28T08:39:31.544Z,21.10
2018-06-28T08:42:05.756Z,21.20
2018-06-28T08:47:32.814Z,21.60
2018-06-28T08:50:09.766Z,21.50
2018-06-28T08:52:38.582Z,21.70
2018-06-28T08:58:12.939Z,22.00
2018-06-28T09:00:42.758Z,22.80
2018-06-28T09:03:16.750Z,22.90
2018-06-28T09:06:01.594Z,23.00
2018-06-28T09:08:31.590Z,22.60
2018-06-28T09:11:13.458Z,22.00
2018-06-28T09:13:44.178Z,21.80
2018-06-28T09:16:14.901Z,21.20
2018-06-28T09:18:49.937Z,20.70
2018-06-28T09:21:24.898Z,20.50
2018-06-28T09:23:58.246Z,20.40
2018-06-28T09:26:45.197Z,20.60
2018-06-28T09:32:39.821Z,21.00
2018-06-28T09:35:08.645Z,21.00
2018-06-28T09:37:38.466Z,21.10
2018-06-28T09:43:06.718Z,21.00
2018-06-28T09:45:41.962Z,21.20
2018-06-28T09:48:14.285Z,21.20
2018-06-28T09:51:00.118Z,21.30
2018-06-28T09:53:47.235Z,21.20
2018-06-28T09:56:19.610Z,21.20
2018-06-28T09:58:58.158Z,21.40
2018-06-28T10:01:40.548Z,21.40
2018-06-28T10:04:13.281Z,21.40
2018-06-28T10:12:43.534Z,22.50
2018-06-28T10:15:13.334Z,22.70
2018-06-28T10:17:46.202Z,22.30
2018-06-28T10:20:17.046Z,22.40
2018-06-28T10:22:52.309Z,22.60
2018-06-28T10:25:28.202Z,22.70
2018-06-28T10:28:13.477Z,22.80
2018-06-28T10:30:58.346Z,22.50
2018-06-28T10:36:22.528Z,21.90
2018-06-28T10:38:51.258Z,21.90
2018-06-28T10:41:32.618Z,21.90
2018-06-28T10:44:12.762Z,21.90
2018-06-28T10:46:53.466Z,21.90
2018-06-28T10:49:36.961Z,22.10
2018-06-28T10:52:05.908Z,22.20
2018-06-28T10:54:35.665Z,22.50
2018-06-28T10:57:12.010Z,23.00
2018-06-28T11:02:51.085Z,23.50
2018-06-28T11:05:37.737Z,23.60
2018-06-28T11:08:09.665Z,23.70
2018-06-28T11:10:54.601Z,23.50
2018-06-28T11:13:23.442Z,23.20
2018-06-28T11:16:02.689Z,22.30
2018-06-28T11:18:54.383Z,22.10
2018-06-28T11:21:23.171Z,21.90
2018-06-28T11:23:53.974Z,21.80
2018-06-28T11:26:26.874Z,21.80
2018-06-28T11:28:59.520Z,22.00
2018-06-28T11:31:30.337Z,22.10
2018-06-28T11:34:10.912Z,22.00
2018-06-28T11:36:43.034Z,22.00
2018-06-28T11:39:12.785Z,22.00
2018-06-28T11:41:48.337Z,22.00
2018-06-28T11:44:24.313Z,22.00
2018-06-28T11:46:54.120Z,21.60
2018-06-28T11:49:23.949Z,21.10
2018-06-28T11:51:53.797Z,20.90
2018-06-28T11:54:23.545Z,20.60
2018-06-28T11:56:57.540Z,20.20
2018-06-28T12:02:08.404Z,20.10
2018-06-28T12:04:46.757Z,20.50
2018-06-28T12:07:19.937Z,21.00
2018-06-28T12:10:04.449Z,21.20
2018-06-28T12:12:37.565Z,21.40
2018-06-28T12:15:11.929Z,21.10
2018-06-28T12:17:46.429Z,21.10
2018-06-28T12:20:16.209Z,21.30
2018-06-28T12:22:47.062Z,21.40
2018-06-28T12:25:18.929Z,21.60
2018-06-28T12:27:51.681Z,21.90
2018-06-28T12:30:21.484Z,21.80
2018-06-28T12:32:53.541Z,21.80
2018-06-28T12:35:32.741Z,21.80
2018-06-28T12:38:11.549Z,21.90
2018-06-28T12:40:40.429Z,22.00
2018-06-28T12:45:37.697Z,21.60
2018-06-28T12:48:13.905Z,21.40
2018-06-28T12:50:50.253Z,21.20
2018-06-28T12:56:18.972Z,20.90
2018-06-28T12:58:53.005Z,20.60
2018-06-28T13:01:35.949Z,20.30
2018-06-28T13:06:36.829Z,19.30
2018-06-28T13:09:13.873Z,18.90
2018-06-28T13:11:46.677Z,18.40
2018-06-28T13:14:16.489Z,18.00
2018-06-28T13:16:46.365Z,17.70
2018-06-28T13:19:24.509Z,17.50
2018-06-28T13:22:11.405Z,17.20
2018-06-28T13:24:41.393Z,17.10
2018-06-28T13:27:10.177Z,17.20
2018-06-28T13:29:42.906Z,17.20
2018-06-28T13:32:12.637Z,17.10
2018-06-28T13:34:44.753Z,17.10
2018-06-28T13:37:13.525Z,17.10
2018-06-28T13:39:46.545Z,17.10
2018-06-28T13:42:16.423Z,17.10
2018-06-28T13:44:47.092Z,17.10
2018-06-28T13:47:16.821Z,17.20
2018-06-28T13:49:48.589Z,17.30
2018-06-28T13:52:22.328Z,17.40
2018-06-28T13:55:03.321Z,17.40
2018-06-28T13:57:32.064Z,17.50
2018-06-28T14:00:02.859Z,17.40
2018-06-28T14:05:01.137Z,17.30
2018-06-28T14:07:33.920Z,17.20
2018-06-28T14:12:49.465Z,17.00
2018-06-28T14:15:24.349Z,16.90
2018-06-28T14:17:56.689Z,17.00
2018-06-28T14:20:25.476Z,17.10
2018-06-28T14:22:56.160Z,17.20
2018-06-28T14:25:30.348Z,17.40
2018-06-28T14:27:59.208Z,17.50
2018-06-28T14:30:31.276Z,17.60
2018-06-28T14:33:01.105Z,17.70
2018-06-28T14:38:35.401Z,17.70
2018-06-28T14:41:11.628Z,17.60
2018-06-28T14:43:45.193Z,17.60
2018-06-28T14:46:15.080Z,17.40
2018-06-28T14:48:43.984Z,17.30
2018-06-28T14:51:12.820Z,17.20
2018-06-28T14:53:42.704Z,17.20
2018-06-28T14:56:22.096Z,17.20
2018-06-28T14:58:52.128Z,17.10
2018-06-28T15:01:24.952Z,17.20
2018-06-28T15:04:01.177Z,17.20
2018-06-28T15:06:30.117Z,17.10
2018-06-28T15:09:07.308Z,17.10
2018-06-28T15:11:36.165Z,17.10
2018-06-28T15:14:08.017Z,17.10
2018-06-28T15:16:39.892Z,17.10
2018-06-28T15:19:09.708Z,17.10
2018-06-28T15:21:57.073Z,17.10
2018-06-28T15:24:33.932Z,17.00
2018-06-28T15:27:02.777Z,17.00
2018-06-28T15:29:54.265Z,16.90
2018-06-28T15:32:23.080Z,16.70
2018-06-28T15:34:51.832Z,16.60
2018-06-28T15:37:43.653Z,16.50
2018-06-28T15:40:12.735Z,16.50
2018-06-28T15:42:52.376Z,16.40
2018-06-28T15:45:22.345Z,16.30
2018-06-28T15:47:52.089Z,16.30
2018-06-28T15:50:28.712Z,16.40
2018-06-28T15:53:02.860Z,16.30
2018-06-28T15:55:37.708Z,16.20
2018-06-28T16:00:36.126Z,16.00
2018-06-28T16:03:05.869Z,15.90
2018-06-28T16:05:35.705Z,15.90
2018-06-28T16:08:10.560Z,15.90
2018-06-28T16:16:40.029Z,15.80
2018-06-28T16:19:14.320Z,15.70
2018-06-28T16:21:56.976Z,15.70
2018-06-28T16:24:31.432Z,15.70
2018-06-28T16:29:35.910Z,15.60
2018-06-28T16:32:04.609Z,15.60
2018-06-28T16:34:36.468Z,15.60
2018-06-28T16:37:10.868Z,15.60
2018-06-28T16:39:47.168Z,15.60
2018-06-28T16:42:16.904Z,15.60
2018-06-28T16:44:52.480Z,15.60
2018-06-28T16:47:32.288Z,15.60
2018-06-28T16:50:01.089Z,15.70
2018-06-28T16:55:31.577Z,15.60
2018-06-28T16:58:04.974Z,15.50
2018-06-28T17:00:35.776Z,15.40
2018-06-28T17:03:16.140Z,15.40
2018-06-28T17:05:47.032Z,15.40
2018-06-28T17:08:20.928Z,15.40
2018-06-28T17:10:49.776Z,15.40
2018-06-28T17:13:21.720Z,15.40
2018-06-28T17:15:54.648Z,15.40
2018-06-28T17:18:26.677Z,15.40
2018-06-28T17:20:57.472Z,15.40
2018-06-28T17:23:31.836Z,15.40
2018-06-28T17:28:31.027Z,15.40
2018-06-28T17:30:59.792Z,15.40
2018-06-28T17:33:29.564Z,15.50
2018-06-28T17:36:01.540Z,15.50
2018-06-28T17:38:33.748Z,15.50
2018-06-28T17:41:03.496Z,15.40
2018-06-28T17:46:09.960Z,15.30
2018-06-28T17:48:39.728Z,15.40
2018-06-28T17:51:08.516Z,15.40
2018-06-28T17:53:39.308Z,15.40
2018-06-28T17:56:09.152Z,15.40
2018-06-28T17:58:42.796Z,15.30
2018-06-28T18:01:11.592Z,15.30
2018-06-28T18:03:54.569Z,15.30
2018-06-28T18:06:26.460Z,15.30
2018-06-28T18:08:59.234Z,15.30
2018-06-28T18:11:29.963Z,15.30
2018-06-28T18:13:59.928Z,15.20
2018-06-28T18:16:32.844Z,15.20
2018-06-28T18:19:10.150Z,15.20
2018-06-28T18:21:44.512Z,15.20
2018-06-28T18:24:14.339Z,15.20
2018-06-28T18:26:48.116Z,15.10
2018-06-28T18:29:17.947Z,15.10
2018-06-28T18:32:06.975Z,15.10
2018-06-28T18:34:36.787Z,15.10
2018-06-28T18:37:05.856Z,15.10
2018-06-28T18:39:35.908Z,15.20
2018-06-28T18:42:06.687Z,15.10
2018-06-28T18:44:37.470Z,15.10
2018-06-28T18:47:08.361Z,15.10
2018-06-28T18:49:39.187Z,15.10
2018-06-28T18:52:10.019Z,15.10
2018-06-28T18:54:43.627Z,15.10
2018-06-28T18:57:16.166Z,15.10
2018-06-28T18:59:45.948Z,15.10
2018-06-28T19:02:15.772Z,15.10
2018-06-28T19:04:47.531Z,15.10
2018-06-28T19:07:23.227Z,15.10
2018-06-28T19:10:10.032Z,15.20
2018-06-28T19:12:39.827Z,15.20
2018-06-28T19:15:15.931Z,15.20
2018-06-28T19:17:44.783Z,15.20
2018-06-28T19:20:25.811Z,15.20
2018-06-28T19:23:00.064Z,15.20
2018-06-28T19:25:29.803Z,15.20
2018-06-28T19:27:59.727Z,15.20
2018-06-28T19:33:23.764Z,15.20
2018-06-28T19:36:03.761Z,15.20
2018-06-28T19:38:43.744Z,15.20
2018-06-28T19:41:21.253Z,15.20
2018-06-28T19:43:59.900Z,15.20
2018-06-28T19:46:28.764Z,15.20
2018-06-28T19:49:10.008Z,15.20
2018-06-28T19:51:57.079Z,15.20
2018-06-28T19:54:45.043Z,15.20
2018-06-28T19:57:21.683Z,15.20
2018-06-28T19:59:55.012Z,15.20
2018-06-28T20:02:45.351Z,15.30
2018-06-28T20:08:11.177Z,15.30
2018-06-28T20:10:41.392Z,15.30
2018-06-28T20:13:17.758Z,15.30
2018-06-28T20:16:04.888Z,15.30
2018-06-28T20:18:49.243Z,15.30
2018-06-28T20:21:24.599Z,15.30
2018-06-28T20:23:57.695Z,15.30
2018-06-28T20:26:39.252Z,15.30
2018-06-28T20:29:15.379Z,15.40
2018-06-28T20:31:51.598Z,15.30
2018-06-28T20:34:23.445Z,15.30
2018-06-28T20:36:52.412Z,15.30
2018-06-28T20:39:21.219Z,15.40
2018-06-28T20:41:50.095Z,15.40
2018-06-28T20:44:18.899Z,15.40
2018-06-28T20:46:54.619Z,15.30
2018-06-28T20:49:33.312Z,15.30
2018-06-28T20:52:08.371Z,15.30
2018-06-28T20:57:07.796Z,15.10
2018-06-28T20:59:54.703Z,15.10
2018-06-28T21:02:31.262Z,15.10
2018-06-28T21:05:07.251Z,15.00
2018-06-28T21:07:46.211Z,15.00
2018-06-28T21:10:14.996Z,15.00
2018-06-28T21:12:43.756Z,15.00
2018-06-28T21:15:17.457Z,15.00
2018-06-28T21:17:47.168Z,15.00
2018-06-28T21:23:14.135Z,15.10
2018-06-28T21:25:42.935Z,15.10
2018-06-28T21:28:11.700Z,15.20
2018-06-28T21:30:42.607Z,15.20
2018-06-28T21:33:13.371Z,15.20
2018-06-28T21:35:51.935Z,15.20
2018-06-28T21:38:22.695Z,15.20
2018-06-28T21:40:52.444Z,15.20
2018-06-28T21:43:27.364Z,15.20
2018-06-28T21:46:08.192Z,15.20
2018-06-28T21:48:40.487Z,15.10
2018-06-28T21:51:23.272Z,15.10
2018-06-28T21:53:54.024Z,15.20
2018-06-28T21:56:27.444Z,15.20
2018-06-28T21:58:59.319Z,15.20
2018-06-28T22:01:28.154Z,15.10
2018-06-28T22:04:02.283Z,15.10
2018-06-28T22:06:32.279Z,15.00
2018-06-28T22:09:07.679Z,15.00
2018-06-28T22:11:38.559Z,15.00
2018-06-28T22:14:09.345Z,15.00
2018-06-28T22:16:40.115Z,14.90
2018-06-28T22:19:15.463Z,14.90
2018-06-28T22:21:51.863Z,14.90
2018-06-28T22:24:23.883Z,14.90
2018-06-28T22:26:58.087Z,15.00
2018-06-28T22:29:33.642Z,15.00
2018-06-28T22:32:09.706Z,15.00
2018-06-28T22:34:38.563Z,15.00
2018-06-28T22:37:08.383Z,15.00
2018-06-28T22:39:37.154Z,15.00
2018-06-28T22:42:12.335Z,15.00
2018-06-28T22:44:42.098Z,15.10
2018-06-28T22:47:10.990Z,15.10
2018-06-28T22:49:40.827Z,15.10
2018-06-28T22:52:09.622Z,15.20
2018-06-28T22:54:40.370Z,15.10
2018-06-28T22:57:10.170Z,15.10
2018-06-28T22:59:39.047Z,15.10
2018-06-28T23:02:08.807Z,15.10
2018-06-28T23:04:37.602Z,15.10
2018-06-28T23:07:10.751Z,15.10
2018-06-28T23:09:39.651Z,15.10
2018-06-28T23:12:09.431Z,15.10
2018-06-28T23:22:25.599Z,15.10
2018-06-28T23:24:54.479Z,15.20
2018-06-28T23:27:26.859Z,15.20
2018-06-28T23:32:27.715Z,15.00
2018-06-28T23:34:59.724Z,15.00
2018-06-28T23:37:28.579Z,15.00
2018-06-28T23:40:01.211Z,15.00
2018-06-28T23:42:34.979Z,15.10
2018-06-28T23:45:04.263Z,15.10
2018-06-28T23:47:39.056Z,15.20
2018-06-28T23:50:17.859Z,15.20
2018-06-28T23:52:50.295Z,15.20
2018-06-28T23:55:20.039Z,15.30
2018-06-28T23:57:48.851Z,15.30
